Time;durP1;ratioP1;P1;durP2;ratioP2;P2;SDS_P1;SDS_P2;PMS_P1;PMS_P2;Temp;Humidity;BMP_temperature;BMP_pressure;BME280_temperature;BME280_humidity;BME280_pressure;Samples;Min_cycle;Max_cycle;Signal;HPM_P1;HPM_P2
2022/02/06 00:00:30;;;;;;;5.85;3.40;;;5.60;99.90;;;;;;6218851;23;20221;-61
2022/02/06 00:02:56;;;;;;;5.75;3.60;;;5.60;99.90;;;;;;6219089;23;20223;-61
2022/02/06 00:05:22;;;;;;;5.63;3.05;;;5.60;99.90;;;;;;6218727;23;20176;-61
2022/02/06 00:07:49;;;;;;;5.72;3.30;;;5.70;99.90;;;;;;6218551;23;20145;-61
2022/02/06 00:10:14;;;;;;;5.03;2.75;;;5.70;99.90;;;;;;6219134;23;20176;-61
2022/02/06 00:12:40;;;;;;;4.03;3.15;;;5.70;99.90;;;;;;6218874;23;20141;-61
2022/02/06 00:15:06;;;;;;;4.50;3.60;;;5.70;99.90;;;;;;6218858;23;20208;-61
2022/02/06 00:17:32;;;;;;;3.72;3.30;;;5.80;99.90;;;;;;6219222;23;20561;-61
2022/02/06 00:19:57;;;;;;;4.20;3.20;;;5.70;99.90;;;;;;6218628;23;20580;-61
2022/02/06 00:22:37;;;;;;;6.53;3.47;;;5.70;99.90;;;;;;6218677;23;20228;-61
2022/02/06 00:30:32;;;;;;;5.20;2.97;;;5.80;99.90;;;;;;6218975;23;20491;-61
2022/02/06 00:33:01;;;;;;;7.72;3.33;;;5.80;99.90;;;;;;6217879;23;20164;-61
2022/02/06 00:35:50;;;;;;;5.50;3.25;;;5.80;99.90;;;;;;6219095;23;20141;-61
2022/02/06 00:43:26;;;;;;;4.53;3.38;;;5.90;99.90;;;;;;6218917;23;20182;-61
2022/02/06 00:45:52;;;;;;;3.88;3.00;;;5.90;99.90;;;;;;6218512;23;20600;-61
2022/02/06 00:48:22;;;;;;;3.33;2.85;;;5.90;99.90;;;;;;6218710;23;20212;-61
2022/02/06 00:50:53;;;;;;;5.72;3.10;;;5.90;99.90;;;;;;6219157;23;20204;-61
2022/02/06 00:53:18;;;;;;;5.65;3.00;;;5.90;99.90;;;;;;6218464;23;20140;-61
2022/02/06 00:55:44;;;;;;;3.40;2.70;;;5.90;99.90;;;;;;6218413;23;20448;-61
2022/02/06 00:58:10;;;;;;;5.30;2.80;;;5.90;99.90;;;;;;6217949;23;20145;-61
2022/02/06 01:00:36;;;;;;;3.50;2.60;;;6.00;99.90;;;;;;6218288;23;20160;-61
2022/02/06 01:03:01;;;;;;;3.17;2.70;;;6.00;99.90;;;;;;6218274;23;20386;-61
2022/02/06 01:05:27;;;;;;;3.95;2.38;;;6.00;99.90;;;;;;6218250;23;20192;-61
2022/02/06 01:07:54;;;;;;;4.75;2.80;;;6.00;99.90;;;;;;6218213;23;20201;-61
2022/02/06 01:10:19;;;;;;;3.45;2.53;;;6.00;99.90;;;;;;6218865;23;20219;-61
2022/02/06 01:12:53;;;;;;;3.47;2.70;;;6.00;99.90;;;;;;6218299;23;20482;-61
2022/02/06 01:15:23;;;;;;;3.58;2.70;;;6.00;99.90;;;;;;6218676;23;20125;-61
2022/02/06 01:17:55;;;;;;;4.15;2.60;;;6.00;99.90;;;;;;6218705;23;20129;-61
2022/02/06 01:20:30;;;;;;;3.25;2.45;;;6.00;99.90;;;;;;6218884;23;20133;-61
2022/02/06 01:23:05;;;;;;;4.25;2.83;;;6.00;99.90;;;;;;6218812;23;20474;-61
2022/02/06 01:25:38;;;;;;;3.70;2.40;;;6.00;99.90;;;;;;6218162;23;20576;-62
2022/02/06 01:28:11;;;;;;;4.03;2.42;;;5.90;99.90;;;;;;6218809;23;20129;-61
2022/02/06 01:30:56;;;;;;;4.40;2.45;;;5.90;99.90;;;;;;6218578;23;20160;-61
2022/02/06 01:33:30;;;;;;;4.10;2.40;;;5.90;99.90;;;;;;6218052;23;20446;-61
2022/02/06 01:38:27;;;;;;;3.13;2.22;;;5.90;99.90;;;;;;6217852;23;20145;-61
2022/02/06 01:41:03;;;;;;;2.72;2.08;;;5.90;99.90;;;;;;6218060;23;20141;-61
2022/02/06 01:43:38;;;;;;;3.88;2.47;;;6.00;99.90;;;;;;6218552;23;20207;-60
2022/02/06 01:46:35;;;;;;;3.15;2.00;;;5.90;99.90;;;;;;6218100;23;20251;-61
2022/02/06 02:08:28;;;;;;;2.13;1.88;;;6.00;99.90;;;;;;6217703;23;20220;-61
2022/02/06 02:48:12;;;;;;;1.73;1.48;;;6.10;99.90;;;;;;6216446;23;20167;-61
2022/02/06 02:50:42;;;;;;;1.75;1.25;;;6.00;99.90;;;;;;6216397;23;20141;-61
2022/02/06 02:53:25;;;;;;;2.08;1.40;;;6.00;99.90;;;;;;6216678;23;20152;-60
2022/02/06 02:58:54;;;;;;;2.00;1.60;;;6.10;99.90;;;;;;6216794;23;20191;-61
2022/02/06 03:03:46;;;;;;;2.55;1.30;;;6.10;99.90;;;;;;6216735;23;20148;-61
2022/02/06 03:06:11;;;;;;;1.38;1.27;;;6.10;99.90;;;;;;6216568;23;20173;-60
2022/02/06 03:08:39;;;;;;;1.58;1.30;;;6.10;99.90;;;;;;6216690;23;20149;-60
2022/02/06 03:11:08;;;;;;;1.30;1.20;;;6.20;99.90;;;;;;6216463;23;20434;-61
2022/02/06 03:13:39;;;;;;;1.42;1.30;;;6.20;99.90;;;;;;6216091;23;20605;-60
2022/02/06 03:18:44;;;;;;;1.60;1.50;;;6.20;99.90;;;;;;6216803;23;20160;-61
2022/02/06 03:21:17;;;;;;;2.55;1.40;;;6.20;99.90;;;;;;6217286;23;20155;-61
2022/02/06 03:23:49;;;;;;;3.42;1.50;;;6.20;99.90;;;;;;6218744;23;20130;-61
2022/02/06 03:26:14;;;;;;;1.50;1.40;;;6.20;99.90;;;;;;6218662;23;20585;-61
2022/02/06 03:28:40;;;;;;;1.33;1.23;;;6.20;99.90;;;;;;6218643;23;20151;-60
2022/02/06 03:31:06;;;;;;;1.88;1.40;;;6.30;99.90;;;;;;6218606;23;20172;-61
2022/02/06 03:33:32;;;;;;;1.83;1.38;;;6.30;99.90;;;;;;6218413;23;20452;-60
2022/02/06 03:35:57;;;;;;;1.63;1.40;;;6.30;99.90;;;;;;6218485;23;20155;-61
2022/02/06 03:38:23;;;;;;;1.42;1.30;;;6.30;99.90;;;;;;6218069;23;20215;-60
2022/02/06 03:40:55;;;;;;;1.60;1.40;;;6.30;99.90;;;;;;6218303;23;20506;-61
2022/02/06 03:43:29;;;;;;;3.45;1.40;;;6.30;99.90;;;;;;6218327;23;20155;-61
2022/02/06 03:46:05;;;;;;;1.60;1.42;;;6.30;99.90;;;;;;6218585;23;20251;-61
2022/02/06 03:48:43;;;;;;;1.77;1.20;;;6.40;99.90;;;;;;6218328;23;20132;-61
2022/02/06 03:51:17;;;;;;;1.48;1.38;;;6.30;99.90;;;;;;6218751;23;20133;-61
2022/02/06 03:53:45;;;;;;;1.63;1.25;;;6.40;99.90;;;;;;6218765;23;20129;-61
2022/02/06 03:56:10;;;;;;;1.40;1.30;;;6.40;99.90;;;;;;6218576;23;20220;-61
2022/02/06 03:58:36;;;;;;;1.15;1.00;;;6.40;99.90;;;;;;6218335;23;20176;-61
2022/02/06 04:01:01;;;;;;;1.40;1.30;;;6.30;99.90;;;;;;6218480;23;20141;-61
2022/02/06 04:03:27;;;;;;;1.30;1.20;;;6.40;99.90;;;;;;6218930;23;20141;-61
2022/02/06 04:05:53;;;;;;;1.23;1.13;;;6.40;99.90;;;;;;6218666;23;20589;-60
2022/02/06 04:08:20;;;;;;;1.35;1.20;;;6.40;99.90;;;;;;6218696;23;20141;-60
2022/02/06 04:10:49;;;;;;;2.67;1.15;;;6.30;99.90;;;;;;6218722;23;20586;-61
2022/02/06 04:13:21;;;;;;;1.88;1.20;;;6.40;99.90;;;;;;6218514;23;20141;-61
2022/02/06 04:15:50;;;;;;;3.28;1.50;;;6.40;99.90;;;;;;6219023;23;20133;-61
2022/02/06 04:18:27;;;;;;;2.05;1.33;;;6.40;99.90;;;;;;6219282;23;20149;-61
2022/02/06 04:20:52;;;;;;;1.17;1.00;;;6.40;99.90;;;;;;6219170;23;20241;-61
2022/02/06 04:23:18;;;;;;;1.95;1.30;;;6.40;99.90;;;;;;6218885;23;20553;-62
2022/02/06 04:25:43;;;;;;;1.15;1.05;;;6.40;99.90;;;;;;6218765;23;20263;-61
2022/02/06 04:28:09;;;;;;;1.25;1.05;;;6.40;99.90;;;;;;6217954;23;20236;-61
2022/02/06 04:30:34;;;;;;;2.42;1.20;;;6.40;99.90;;;;;;6217850;23;20448;-61
2022/02/06 04:33:00;;;;;;;2.03;1.38;;;6.40;99.90;;;;;;6217570;23;20129;-60
2022/02/06 04:35:31;;;;;;;1.55;1.00;;;6.30;99.90;;;;;;6217837;23;20151;-61
2022/02/06 04:38:13;;;;;;;1.30;1.20;;;6.40;99.90;;;;;;6218570;23;20144;-61
2022/02/06 05:11:24;;;;;;;1.27;1.08;;;6.40;99.90;;;;;;6218252;23;20172;-61
2022/02/06 05:13:26;;;;;;;0.95;0.90;;;6.40;99.90;;;;;;6217587;23;20556;-61
2022/02/06 05:18:58;;;;;;;1.40;0.90;;;6.50;99.90;;;;;;6217703;23;20191;-61
2022/02/06 05:24:25;;;;;;;1.30;0.80;;;6.50;99.90;;;;;;6217891;23;20140;-61
2022/02/06 05:26:54;;;;;;;2.38;1.27;;;6.50;99.90;;;;;;6216974;23;20153;-61
2022/02/06 05:29:29;;;;;;;1.05;0.95;;;6.50;99.90;;;;;;6217238;23;20171;-61
2022/02/06 05:32:12;;;;;;;1.13;1.02;;;6.50;99.90;;;;;;6217362;23;20156;-61
2022/02/06 05:34:38;;;;;;;1.08;0.98;;;6.50;99.90;;;;;;6217364;23;20129;-62
2022/02/06 05:37:04;;;;;;;1.25;1.00;;;6.60;99.90;;;;;;6216887;23;20552;-61
2022/02/06 05:39:29;;;;;;;1.10;1.00;;;6.60;99.90;;;;;;6216565;23;20239;-62
2022/02/06 05:41:55;;;;;;;1.25;1.10;;;6.60;99.90;;;;;;6216351;23;20458;-62
2022/02/06 05:44:20;;;;;;;1.15;1.00;;;6.60;99.90;;;;;;6216410;23;20152;-62
2022/02/06 05:46:46;;;;;;;1.60;0.98;;;6.60;99.90;;;;;;6216422;23;20137;-61
2022/02/06 05:49:11;;;;;;;1.85;1.20;;;6.60;99.90;;;;;;6216493;23;20173;-62
2022/02/06 05:51:38;;;;;;;1.00;0.90;;;6.60;99.90;;;;;;6216701;23;20141;-61
2022/02/06 05:54:05;;;;;;;0.80;0.80;;;6.60;99.90;;;;;;6216843;23;20228;-62
2022/02/06 05:56:30;;;;;;;1.20;0.90;;;6.60;99.90;;;;;;6216315;23;20176;-62
2022/02/06 05:58:57;;;;;;;1.20;0.90;;;6.60;99.90;;;;;;6216665;23;20160;-61
2022/02/06 06:01:22;;;;;;;1.27;0.93;;;6.60;99.90;;;;;;6216325;23;20148;-62
2022/02/06 06:03:50;;;;;;;0.88;0.80;;;6.70;99.90;;;;;;6216338;23;20145;-62
2022/02/06 06:06:15;;;;;;;1.52;0.90;;;6.70;99.90;;;;;;6216580;23;20184;-62
2022/02/06 06:08:41;;;;;;;1.00;0.80;;;6.70;99.90;;;;;;6217031;23;20145;-62
2022/02/06 06:11:06;;;;;;;1.25;0.80;;;6.70;99.90;;;;;;6216123;23;20418;-62
2022/02/06 06:13:32;;;;;;;1.25;0.88;;;6.70;99.90;;;;;;6216600;23;20196;-61
2022/02/06 06:15:57;;;;;;;1.10;1.00;;;6.70;99.90;;;;;;6216661;23;20202;-61
2022/02/06 06:18:23;;;;;;;1.00;0.77;;;6.70;99.90;;;;;;6217515;23;20153;-60
2022/02/06 06:20:50;;;;;;;0.80;0.80;;;6.70;99.90;;;;;;6217987;23;20172;-61
2022/02/06 06:23:16;;;;;;;1.00;0.90;;;6.70;99.90;;;;;;6217282;23;20163;-61
2022/02/06 06:25:44;;;;;;;0.80;0.75;;;6.60;99.90;;;;;;6216769;23;20164;-61
2022/02/06 06:28:09;;;;;;;2.15;0.90;;;6.60;99.90;;;;;;6217141;23;20167;-61
2022/02/06 06:30:35;;;;;;;1.42;0.70;;;6.70;99.90;;;;;;6216751;23;20164;-62
2022/02/06 06:33:05;;;;;;;1.05;0.88;;;6.70;99.90;;;;;;6216689;23;20163;-62
2022/02/06 06:35:30;;;;;;;1.30;0.90;;;6.70;99.90;;;;;;6216990;23;20152;-62
2022/02/06 06:37:58;;;;;;;1.35;1.00;;;6.70;99.90;;;;;;6217050;23;20572;-61
2022/02/06 06:40:25;;;;;;;1.77;0.80;;;6.70;99.90;;;;;;6216688;23;20495;-62
2022/02/06 06:42:50;;;;;;;1.45;1.10;;;6.70;99.90;;;;;;6216508;23;20214;-61
2022/02/06 06:45:15;;;;;;;1.05;0.90;;;6.70;99.90;;;;;;6217066;23;20164;-62
2022/02/06 06:47:42;;;;;;;1.08;0.73;;;6.70;99.90;;;;;;6216380;23;20137;-62
2022/02/06 06:50:07;;;;;;;0.90;0.80;;;6.70;99.90;;;;;;6216895;23;20228;-61
2022/02/06 06:52:33;;;;;;;0.65;0.65;;;6.70;99.90;;;;;;6215227;23;20178;-61
2022/02/06 06:55:03;;;;;;;2.13;0.90;;;6.70;99.90;;;;;;6216754;23;20196;-62
2022/02/06 06:57:36;;;;;;;0.93;0.80;;;6.80;99.90;;;;;;6218601;23;20129;-62
2022/02/06 07:02:32;;;;;;;1.05;0.70;;;6.80;99.90;;;;;;6218607;23;20179;-61
2022/02/06 07:04:59;;;;;;;1.10;0.90;;;6.80;99.90;;;;;;6218467;23;20196;-61
2022/02/06 07:07:28;;;;;;;0.80;0.80;;;6.80;99.90;;;;;;6218138;23;20507;-61
2022/02/06 07:09:54;;;;;;;1.10;0.90;;;6.90;99.90;;;;;;6218231;23;20137;-62
2022/02/06 07:12:20;;;;;;;1.00;0.73;;;6.90;99.90;;;;;;6218215;23;20216;-61
2022/02/06 07:14:47;;;;;;;0.90;0.60;;;7.00;99.90;;;;;;6216842;23;20199;-62
2022/02/06 07:17:13;;;;;;;1.10;1.00;;;7.00;99.90;;;;;;6218006;23;20148;-61
2022/02/06 07:19:40;;;;;;;2.22;0.98;;;7.00;99.90;;;;;;6218221;23;20145;-60
2022/02/06 07:22:08;;;;;;;1.30;0.82;;;7.00;99.90;;;;;;6218250;23;20380;-61
2022/02/06 07:24:34;;;;;;;1.00;0.90;;;7.00;99.90;;;;;;6218083;23;20313;-61
2022/02/06 07:27:03;;;;;;;1.35;0.95;;;7.00;99.90;;;;;;6218146;23;20217;-61
2022/02/06 07:29:29;;;;;;;1.73;0.70;;;7.10;99.90;;;;;;6218358;23;20141;-61
2022/02/06 07:31:57;;;;;;;1.27;0.90;;;7.10;99.90;;;;;;6218123;23;20490;-61
2022/02/06 07:34:22;;;;;;;0.98;0.93;;;7.10;99.90;;;;;;6218357;23;20194;-62
2022/02/06 07:36:48;;;;;;;2.50;0.93;;;7.10;99.90;;;;;;6219099;23;20543;-61
2022/02/06 07:39:13;;;;;;;0.90;0.90;;;7.10;99.90;;;;;;6219077;23;20137;-61
2022/02/06 07:41:39;;;;;;;1.05;0.90;;;7.10;99.90;;;;;;6218589;23;20195;-61
2022/02/06 07:44:05;;;;;;;1.58;0.93;;;7.20;99.90;;;;;;6218552;23;20553;-62
2022/02/06 07:46:40;;;;;;;0.98;0.90;;;7.20;99.90;;;;;;6218285;23;20161;-62
2022/02/06 07:49:06;;;;;;;1.63;1.10;;;7.20;99.90;;;;;;6218718;23;20164;-62
2022/02/06 07:51:31;;;;;;;2.25;1.02;;;7.20;99.90;;;;;;6218235;23;20419;-61
2022/02/06 07:53:57;;;;;;;0.95;0.90;;;7.20;99.90;;;;;;6217924;23;20667;-61
2022/02/06 07:56:22;;;;;;;1.67;1.10;;;7.20;99.90;;;;;;6216696;23;20144;-61
2022/02/06 07:58:47;;;;;;;1.95;1.10;;;7.30;99.90;;;;;;6217978;23;20147;-61
2022/02/06 08:01:13;;;;;;;0.95;0.85;;;7.20;99.90;;;;;;6218060;23;20573;-59
2022/02/06 08:03:38;;;;;;;1.35;1.25;;;7.20;99.90;;;;;;6217860;23;20140;-61
2022/02/06 08:06:04;;;;;;;2.33;0.90;;;7.30;99.90;;;;;;6218463;23;20172;-60
2022/02/06 08:08:29;;;;;;;1.83;0.80;;;7.30;99.90;;;;;;6217688;23;20156;-61
2022/02/06 08:11:00;;;;;;;0.85;0.60;;;7.30;99.90;;;;;;6217471;23;20156;-61
2022/02/06 08:13:27;;;;;;;2.45;1.15;;;7.30;99.90;;;;;;6217887;23;20141;-61
2022/02/06 08:15:54;;;;;;;1.52;0.98;;;7.30;99.90;;;;;;6217711;23;20148;-61
2022/02/06 08:18:20;;;;;;;1.05;0.90;;;7.40;99.90;;;;;;6217430;23;20160;-61
2022/02/06 08:20:45;;;;;;;0.60;0.60;;;7.40;99.90;;;;;;6217417;23;20149;-62
2022/02/06 08:23:11;;;;;;;1.10;0.90;;;7.40;99.90;;;;;;6217337;23;20179;-62
2022/02/06 08:25:36;;;;;;;1.23;1.00;;;7.40;99.90;;;;;;6217468;23;20251;-61
2022/02/06 08:28:02;;;;;;;2.90;1.00;;;7.40;99.90;;;;;;6217328;23;20141;-62
2022/02/06 08:30:30;;;;;;;2.35;1.00;;;7.40;99.90;;;;;;6217323;23;20160;-61
2022/02/06 08:32:56;;;;;;;1.63;1.02;;;7.40;99.90;;;;;;6217675;23;20164;-61
2022/02/06 08:35:22;;;;;;;2.15;0.90;;;7.50;99.90;;;;;;6217508;23;20160;-61
2022/02/06 08:37:50;;;;;;;2.85;0.90;;;7.50;99.90;;;;;;6217578;23;20438;-61
2022/02/06 08:40:16;;;;;;;1.15;0.85;;;7.50;99.90;;;;;;6216061;23;20156;-61
2022/02/06 08:42:43;;;;;;;1.25;0.80;;;7.50;99.90;;;;;;6217210;23;20227;-61
2022/02/06 08:45:11;;;;;;;0.95;0.70;;;7.50;99.90;;;;;;6217170;23;20175;-61
2022/02/06 08:47:37;;;;;;;3.15;1.17;;;7.50;99.90;;;;;;6217401;23;20171;-62
2022/02/06 08:50:03;;;;;;;2.00;0.80;;;7.50;99.90;;;;;;6217271;23;20168;-62
2022/02/06 08:52:28;;;;;;;2.08;1.10;;;7.50;99.90;;;;;;6217485;23;20149;-61
2022/02/06 08:54:54;;;;;;;1.75;1.35;;;7.60;99.90;;;;;;6217263;23;20581;-62
2022/02/06 08:57:23;;;;;;;2.70;1.10;;;7.60;99.90;;;;;;6217100;23;20145;-62
2022/02/06 08:59:49;;;;;;;2.28;0.90;;;7.60;99.90;;;;;;6217825;23;20153;-61
2022/02/06 09:02:14;;;;;;;3.97;1.20;;;7.70;99.90;;;;;;6217066;23;20163;-62
2022/02/06 09:04:40;;;;;;;3.65;1.00;;;7.70;99.90;;;;;;6215868;23;20172;-62
2022/02/06 09:07:05;;;;;;;1.05;0.90;;;7.70;99.90;;;;;;6217070;23;20159;-62
2022/02/06 09:09:32;;;;;;;1.33;0.90;;;7.70;99.90;;;;;;6217290;23;20141;-62
2022/02/06 09:11:59;;;;;;;2.88;0.90;;;7.70;99.90;;;;;;6217443;23;20145;-61
2022/02/06 09:14:27;;;;;;;3.03;1.00;;;7.70;99.90;;;;;;6217135;23;20219;-61
2022/02/06 09:16:52;;;;;;;2.83;1.05;;;7.70;99.90;;;;;;6217246;23;20152;-62
2022/02/06 09:19:18;;;;;;;1.65;0.70;;;7.70;99.90;;;;;;6216684;23;20145;-62
2022/02/06 09:21:44;;;;;;;1.42;0.80;;;7.80;99.90;;;;;;6216833;23;20145;-62
2022/02/06 09:24:10;;;;;;;2.30;0.85;;;7.80;99.90;;;;;;6216585;23;20160;-61
2022/02/06 09:26:37;;;;;;;1.30;0.65;;;7.80;99.90;;;;;;6216610;23;20176;-62
2022/02/06 09:29:03;;;;;;;2.70;0.68;;;7.80;99.90;;;;;;6216966;23;20145;-62
2022/02/06 09:31:29;;;;;;;2.05;0.70;;;7.90;99.90;;;;;;6216793;23;20157;-62
2022/02/06 09:36:21;;;;;;;0.75;0.50;;;7.90;99.90;;;;;;6217102;23;20667;-61
2022/02/06 09:38:46;;;;;;;0.70;0.60;;;7.90;99.90;;;;;;6216777;23;20156;-61
2022/02/06 09:41:12;;;;;;;1.45;0.63;;;7.90;99.90;;;;;;6216994;23;20218;-61
2022/02/06 09:43:38;;;;;;;2.75;0.70;;;7.90;99.90;;;;;;6216545;23;20445;-62
2022/02/06 09:46:04;;;;;;;2.10;1.40;;;7.80;99.90;;;;;;6216761;23;20171;-61
2022/02/06 09:48:30;;;;;;;0.57;0.57;;;7.90;99.90;;;;;;6216609;23;20549;-61
2022/02/06 09:50:57;;;;;;;1.83;1.13;;;7.90;99.90;;;;;;6216846;23;20159;-61
2022/02/06 09:53:22;;;;;;;1.33;0.60;;;8.00;99.90;;;;;;6216661;23;20244;-61
2022/02/06 09:55:48;;;;;;;0.40;0.40;;;8.00;99.90;;;;;;6216702;23;20177;-61
2022/02/06 09:59:00;;;;;;;1.33;0.70;;;8.10;99.90;;;;;;6216886;23;20149;-61
2022/02/06 10:01:08;;;;;;;1.35;0.60;;;8.20;99.90;;;;;;6211214;23;20184;-64
2022/02/06 10:03:42;;;;;;;0.90;0.50;;;8.20;99.90;;;;;;6216616;23;20129;-64
2022/02/06 10:06:15;;;;;;;1.00;0.57;;;8.30;99.90;;;;;;6215652;23;20426;-64
2022/02/06 10:08:41;;;;;;;1.38;0.50;;;8.40;99.90;;;;;;6215319;23;20191;-63
2022/02/06 10:11:11;;;;;;;1.27;0.47;;;8.50;99.90;;;;;;6215377;23;20145;-62
2022/02/06 10:13:39;;;;;;;1.60;0.60;;;8.60;99.90;;;;;;6216361;23;20553;-62
2022/02/06 10:16:09;;;;;;;2.15;0.60;;;8.70;99.90;;;;;;6216204;23;20584;-61
2022/02/06 10:18:35;;;;;;;2.08;1.02;;;8.70;99.90;;;;;;6216597;23;20477;-63
2022/02/06 10:21:01;;;;;;;1.67;0.50;;;8.70;99.90;;;;;;6216435;23;20492;-64
2022/02/06 10:23:34;;;;;;;0.70;0.40;;;8.70;99.90;;;;;;6216273;23;20234;-63
2022/02/06 10:26:09;;;;;;;1.08;0.40;;;8.80;99.90;;;;;;6216519;23;20451;-63
2022/02/06 10:28:45;;;;;;;1.58;0.50;;;8.80;99.90;;;;;;6216624;23;20128;-63
2022/02/06 10:31:11;;;;;;;2.05;0.43;;;8.90;99.90;;;;;;6215211;23;20244;-63
2022/02/06 10:33:51;;;;;;;1.13;0.30;;;8.90;99.90;;;;;;6216372;23;20179;-63
2022/02/06 10:36:22;;;;;;;1.17;0.40;;;8.90;99.90;;;;;;6216249;23;20148;-63
2022/02/06 10:38:47;;;;;;;0.22;0.20;;;8.80;99.90;;;;;;6216146;23;20525;-63
2022/02/06 10:41:18;;;;;;;0.75;0.40;;;8.80;99.90;;;;;;6216439;23;20154;-63
2022/02/06 10:43:54;;;;;;;0.75;0.38;;;8.80;99.90;;;;;;6216345;23;20210;-63
2022/02/06 10:46:20;;;;;;;0.70;0.38;;;8.70;99.90;;;;;;6215887;23;20653;-63
2022/02/06 10:48:53;;;;;;;1.10;0.30;;;8.70;99.90;;;;;;6215941;23;20176;-63
2022/02/06 10:51:43;;;;;;;0.50;0.30;;;8.60;99.90;;;;;;6216105;23;20537;-63
2022/02/06 10:54:14;;;;;;;0.73;0.40;;;8.50;99.90;;;;;;6216417;23;20156;-63
2022/02/06 10:56:57;;;;;;;1.65;0.40;;;8.40;99.90;;;;;;6216510;23;20137;-63
2022/02/06 10:59:22;;;;;;;0.93;0.30;;;8.40;99.90;;;;;;6215997;23;20133;-63
2022/02/06 11:01:48;;;;;;;0.63;0.30;;;8.40;99.90;;;;;;6216446;23;20141;-63
2022/02/06 11:04:19;;;;;;;0.52;0.30;;;8.40;99.90;;;;;;6216160;23;20145;-63
2022/02/06 11:07:03;;;;;;;0.93;0.30;;;8.40;99.90;;;;;;6215950;23;20557;-62
2022/02/06 11:09:30;;;;;;;0.35;0.30;;;8.40;99.90;;;;;;6216731;23;20180;-61
2022/02/06 11:12:05;;;;;;;0.75;0.40;;;8.30;99.90;;;;;;6216546;23;20489;-62
2022/02/06 11:14:34;;;;;;;1.25;0.40;;;8.30;99.90;;;;;;6216542;23;20213;-62
2022/02/06 11:17:03;;;;;;;1.85;0.40;;;8.30;99.90;;;;;;6216721;23;20224;-62
2022/02/06 11:19:29;;;;;;;0.30;0.30;;;8.30;99.90;;;;;;6215744;23;20152;-62
2022/02/06 11:22:09;;;;;;;0.55;0.30;;;8.30;99.90;;;;;;6215829;23;20149;-62
2022/02/06 11:24:39;;;;;;;1.38;0.30;;;8.30;99.90;;;;;;6216561;23;20151;-63
2022/02/06 11:27:06;;;;;;;1.42;0.43;;;8.30;99.90;;;;;;6216160;23;20188;-63
2022/02/06 11:29:32;;;;;;;0.20;0.20;;;8.30;99.90;;;;;;6216140;23;20141;-63
2022/02/06 11:31:58;;;;;;;1.77;0.38;;;8.30;99.90;;;;;;6217340;23;20157;-63
2022/02/06 11:34:23;;;;;;;0.30;0.20;;;8.30;99.90;;;;;;6223900;23;20168;-63
2022/02/06 11:45:57;;;;;;;1.15;0.35;;;7.90;99.90;;;;;;6217801;23;20171;-62
2022/02/06 11:48:27;;;;;;;0.93;0.35;;;7.70;99.90;;;;;;6217895;23;20148;-62
2022/02/06 11:50:53;;;;;;;1.13;0.45;;;7.60;99.90;;;;;;6216982;23;20219;-63
2022/02/06 11:53:38;;;;;;;0.45;0.30;;;7.50;99.90;;;;;;6216618;23;20137;-62
2022/02/06 11:56:33;;;;;;;0.40;0.30;;;7.40;99.90;;;;;;6218016;23;20133;-63
2022/02/06 11:59:17;;;;;;;1.85;0.65;;;7.30;99.90;;;;;;6216544;23;20219;-63
2022/02/06 12:01:43;;;;;;;0.93;0.40;;;7.10;99.90;;;;;;6217441;23;20137;-63
2022/02/06 12:04:21;;;;;;;0.93;0.85;;;7.10;99.90;;;;;;6217639;23;20145;-63
2022/02/06 12:06:46;;;;;;;0.30;0.28;;;6.90;99.90;;;;;;6217689;23;20176;-63
2022/02/06 12:09:21;;;;;;;0.50;0.40;;;6.90;99.90;;;;;;6217387;23;20141;-63
2022/02/06 12:12:05;;;;;;;0.57;0.47;;;6.80;99.90;;;;;;6217724;23;20132;-63
2022/02/06 12:14:45;;;;;;;1.23;0.40;;;6.60;99.90;;;;;;6217677;23;20145;-63
2022/02/06 12:19:41;;;;;;;0.30;0.28;;;6.40;99.90;;;;;;6218889;23;20160;-61
2022/02/06 12:22:25;;;;;;;0.47;0.30;;;6.30;99.90;;;;;;6218311;23;20141;-61
2022/02/06 12:24:51;;;;;;;1.25;0.28;;;6.20;99.90;;;;;;6217928;23;20164;-61
2022/02/06 12:27:27;;;;;;;0.50;0.30;;;6.10;99.90;;;;;;6218567;23;20192;-61
2022/02/06 12:30:03;;;;;;;0.20;0.20;;;6.10;99.90;;;;;;6217802;23;20172;-61
2022/02/06 12:32:33;;;;;;;0.30;0.30;;;6.10;99.90;;;;;;6217296;23;20573;-61
2022/02/06 12:37:45;;;;;;;0.82;0.30;;;6.00;99.90;;;;;;6217822;23;20199;-61
2022/02/06 12:40:12;;;;;;;0.28;0.28;;;5.90;99.90;;;;;;6217853;23;20232;-61
2022/02/06 12:42:40;;;;;;;0.35;0.32;;;5.90;99.90;;;;;;6217361;23;20141;-61
2022/02/06 12:45:09;;;;;;;0.60;0.30;;;5.90;99.90;;;;;;6217338;23;20196;-61
2022/02/06 12:47:45;;;;;;;1.63;0.40;;;5.90;99.90;;;;;;6217278;23;20550;-61
2022/02/06 12:50:16;;;;;;;1.38;0.30;;;5.90;99.90;;;;;;6217104;23;20429;-61
2022/02/06 12:52:41;;;;;;;0.22;0.22;;;6.00;99.90;;;;;;6217241;23;20620;-61
2022/02/06 12:55:07;;;;;;;0.40;0.40;;;6.00;99.90;;;;;;6217046;23;20176;-61
2022/02/06 12:57:50;;;;;;;0.30;0.20;;;6.00;99.90;;;;;;6217094;23;20145;-61
2022/02/06 13:00:40;;;;;;;1.02;0.30;;;6.00;99.90;;;;;;6216973;23;20140;-60
2022/02/06 13:03:22;;;;;;;0.55;0.30;;;6.00;99.90;;;;;;6217508;23;20133;-62
2022/02/06 13:05:53;;;;;;;0.13;0.10;;;6.00;99.90;;;;;;6216763;23;20168;-62
2022/02/06 13:08:18;;;;;;;0.20;0.10;;;6.00;99.90;;;;;;6216970;23;20140;-62
2022/02/06 13:11:08;;;;;;;0.20;0.20;;;6.00;99.90;;;;;;6216769;23;20452;-62
2022/02/06 13:13:43;;;;;;;0.50;0.20;;;5.90;99.90;;;;;;6217075;23;20216;-62
2022/02/06 13:24:07;;;;;;;0.73;0.20;;;5.90;99.90;;;;;;6216122;23;20179;-61
2022/02/06 13:27:02;;;;;;;0.25;0.25;;;5.90;99.90;;;;;;6217179;23;20222;-61
2022/02/06 13:29:50;;;;;;;0.35;0.20;;;5.90;99.90;;;;;;6217206;23;20153;-61
2022/02/06 13:32:34;;;;;;;0.82;0.20;;;5.90;99.90;;;;;;6216632;23;20166;-61
2022/02/06 13:35:19;;;;;;;0.30;0.13;;;5.90;99.90;;;;;;6216974;23;20141;-61
2022/02/06 13:37:48;;;;;;;0.17;0.15;;;5.90;99.90;;;;;;6217030;23;20428;-62
2022/02/06 13:40:20;;;;;;;0.30;0.20;;;5.80;99.90;;;;;;6216930;23;20145;-62
2022/02/06 13:43:08;;;;;;;0.30;0.25;;;5.80;99.90;;;;;;6216903;23;20147;-62
2022/02/06 13:45:35;;;;;;;0.77;0.25;;;5.80;99.90;;;;;;6216750;23;20172;-62
2022/02/06 13:48:01;;;;;;;0.35;0.30;;;5.80;99.90;;;;;;6216820;23;20171;-61
2022/02/06 13:50:28;;;;;;;0.82;0.30;;;5.80;99.90;;;;;;6216437;23;20616;-62
2022/02/06 13:53:11;;;;;;;0.52;0.30;;;5.80;99.90;;;;;;6215205;23;20376;-62
2022/02/06 13:55:56;;;;;;;0.50;0.30;;;5.80;99.90;;;;;;6216890;23;20436;-62
2022/02/06 13:58:23;;;;;;;0.40;0.30;;;5.80;99.90;;;;;;6216900;23;20163;-62
2022/02/06 14:00:54;;;;;;;0.75;0.45;;;5.70;99.90;;;;;;6216231;23;20156;-61
2022/02/06 14:03:19;;;;;;;0.73;0.35;;;5.70;99.90;;;;;;6216455;23;20144;-61
2022/02/06 14:05:50;;;;;;;0.65;0.30;;;5.70;99.90;;;;;;6216163;23;20258;-62
2022/02/06 14:08:18;;;;;;;0.55;0.35;;;5.70;99.90;;;;;;6216951;23;20220;-61
2022/02/06 14:10:50;;;;;;;1.15;0.40;;;5.60;99.90;;;;;;6215678;23;20145;-62
2022/02/06 14:13:26;;;;;;;0.63;0.32;;;5.60;99.90;;;;;;6216987;23;20137;-63
2022/02/06 14:16:10;;;;;;;0.40;0.30;;;5.50;99.90;;;;;;6216618;23;20201;-62
2022/02/06 14:18:49;;;;;;;0.40;0.28;;;5.60;99.90;;;;;;6216593;23;20497;-62
2022/02/06 14:21:16;;;;;;;0.30;0.30;;;5.50;99.90;;;;;;6216463;23;20521;-61
2022/02/06 14:23:41;;;;;;;0.20;0.20;;;5.50;99.90;;;;;;6217143;23;20232;-62
2022/02/06 14:26:12;;;;;;;0.40;0.30;;;5.50;99.90;;;;;;6216327;23;20258;-62
2022/02/06 14:28:50;;;;;;;0.30;0.30;;;5.50;99.90;;;;;;6216789;23;20145;-62
2022/02/06 14:31:30;;;;;;;0.30;0.30;;;5.40;99.90;;;;;;6215535;23;20231;-62
2022/02/06 14:34:14;;;;;;;0.32;0.30;;;5.30;99.90;;;;;;6217146;23;20459;-61
2022/02/06 14:36:39;;;;;;;0.30;0.30;;;5.30;99.90;;;;;;6216276;23;20140;-62
2022/02/06 14:39:05;;;;;;;0.30;0.30;;;5.20;99.90;;;;;;6216215;23;20145;-62
2022/02/06 14:41:59;;;;;;;0.52;0.30;;;5.10;99.90;;;;;;6216127;23;20151;-62
2022/02/06 14:44:26;;;;;;;0.80;0.25;;;5.00;99.90;;;;;;6216693;23;20198;-62
2022/02/06 14:46:51;;;;;;;0.30;0.30;;;4.80;99.90;;;;;;6216185;23;20187;-62
2022/02/06 14:49:18;;;;;;;1.05;0.30;;;4.70;99.90;;;;;;6216129;23;20224;-62
2022/02/06 14:51:44;;;;;;;0.47;0.32;;;4.60;99.90;;;;;;6216734;23;20424;-62
2022/02/06 14:54:12;;;;;;;0.40;0.30;;;4.50;99.90;;;;;;6216107;23;20144;-62
2022/02/06 14:56:42;;;;;;;0.32;0.30;;;4.40;99.90;;;;;;6216205;23;20149;-62
2022/02/06 14:59:08;;;;;;;0.80;0.40;;;4.30;99.90;;;;;;6216252;23;20164;-62
2022/02/06 15:01:34;;;;;;;0.50;0.40;;;4.20;99.90;;;;;;6215711;23;20441;-62
2022/02/06 15:03:59;;;;;;;0.73;0.38;;;4.10;99.90;;;;;;6216329;23;20527;-62
2022/02/06 15:06:25;;;;;;;0.57;0.40;;;4.00;99.90;;;;;;6215504;23;20173;-61
2022/02/06 15:08:52;;;;;;;0.55;0.35;;;3.90;99.90;;;;;;6215881;23;20133;-62
2022/02/06 15:11:18;;;;;;;1.25;0.45;;;3.90;99.90;;;;;;6216231;23;20215;-61
2022/02/06 15:13:44;;;;;;;0.60;0.40;;;3.80;99.90;;;;;;6215105;23;20149;-60
2022/02/06 15:16:14;;;;;;;0.35;0.35;;;3.80;99.90;;;;;;6215991;23;20505;-61
2022/02/06 15:18:46;;;;;;;1.00;0.40;;;3.80;99.90;;;;;;6217859;23;20129;-61
2022/02/06 15:21:11;;;;;;;0.40;0.20;;;3.80;99.90;;;;;;6217865;23;20133;-62
2022/02/06 15:23:39;;;;;;;0.50;0.32;;;3.70;99.90;;;;;;6217671;23;20137;-61
2022/02/06 15:26:05;;;;;;;0.40;0.30;;;3.70;99.90;;;;;;6216876;23;20180;-61
2022/02/06 15:28:30;;;;;;;1.27;0.40;;;3.70;99.90;;;;;;6218294;23;20156;-61
2022/02/06 15:30:56;;;;;;;0.13;0.13;;;3.60;99.90;;;;;;6218374;23;20236;-61